Historyczne dane pomiarowe

Dodano dane terminowe – wersja testowa.

Dane z okresu 1951-2019

Wersja bazy: 1.34 [2019-03-16, lista zmian], aktualizacja planowana na 2019-04-15

Dane meteo z obszaru Polski uzyskane na podstawie danych udostępnionych przez Instytut Meteorologii i Gospodarki Wodnej – Państwowy Instytut Badawczy.

 

Wybierz Datę:    

       

TemperaturaWilgotnośćZachmurzenieWiatrCiśnienieWidzialnośćZjawiska
 Data    tng td wb rh cc ccl cl cm ch dir g1 g2 mslp ppp      
1999-08-11 00:00:00 7.9--- 7.3 7.696wxwxwxwx4wx--- 800.4 8.4---wxw1
1999-08-11 01:00:00 7.8--- 7.1 7.596wxwxwxwxwx4wx--- 800.2----wx
1999-08-11 02:00:00 7.5--- 7.1 7.397wxwxwxwxwx4wx--- 800.3----wx
1999-08-11 03:00:00 7.4--- 7.1 7.399wxwxwxwxwx3wx--- 800.2----wx
1999-08-11 04:00:00 7.7--- 7.0 7.496wxwxwx1wx--- 800.4----wx
1999-08-11 05:00:00 7.7--- 6.4 7.092wxwxwx2wx--- 800.8----wx
1999-08-11 06:00:00 8.5--- 5.6 7.083wxwxwx5wx--- 801.0 0.0---wx
1999-08-11 07:00:00 9.2--- 5.8 7.479wxwxwxwxwx2wx--- 801.1----wx
1999-08-11 08:00:00 10.7--- 9.9 10.295wxwxwx1wx--- 801.2----wx
1999-08-11 09:00:00 9.8--- 9.5 9.799wxwxwx1wx--- 801.3----wx
1999-08-11 10:00:00 9.1--- 8.9 9.099wxwx3wx--- 801.4----wxw1
1999-08-11 11:00:00 8.7--- 8.5 8.699wxwxwx2wx--- 801.1----wxw1
1999-08-11 12:00:00 9.4--- 8.4 8.893wxwxwx2wx--- 801.2 0.0---wxw1
1999-08-11 13:00:00 11.2--- 9.7 10.390wxwxwx1wx--- 801.2----wxw1
1999-08-11 14:00:00 9.5--- 8.6 9.094wxwxwx3wx--- 801.4----wxw1
1999-08-11 15:00:00 11.4--- 8.0 9.579wxwxwxwxwx3wx--- 801.4----wxw1
1999-08-11 16:00:00 11.5--- 7.6 9.477wxwxwxwxwx3wx--- 801.2----wx
1999-08-11 17:00:00 10.8--- 9.0 9.888wxwxwxwxwx2wx--- 801.4----wx
1999-08-11 18:00:00 9.1--- 8.1 8.593wxwxwx2wx--- 801.4 0.0---wxw1
1999-08-11 19:00:00 8.2--- 7.4 7.794wxwxwx3wx--- 801.6----wx
1999-08-11 20:00:00 7.9--- 7.8 7.9100wxwx3wx--- 801.6----wxw1
1999-08-11 21:00:00 7.6--- 7.6 7.6100wxwx3wx--- 801.5----wxw1
1999-08-11 22:00:00 7.5--- 7.5 7.5100wxwx2wx--- 801.5----wxw1
1999-08-11 23:00:00 7.3--- 7.3 7.3100wxwx2wx--- 801.4----wxw1

 

Źródłem pochodzenia danych jest Instytut Meteorologii i Gospodarki Wodnej – Państwowy Instytut Badawczy. Dane Instytutu Meteorologii i Gospodarki Wodnej – Państwowego Instytutu Badawczego zostały przetworzone.

Dane źródłowe można odnaleźć na stronie https://dane.imgw.pl